createdAt,value
2022-11-09T00:03:55.311Z,4.70
2022-11-09T00:08:59.425Z,4.50
2022-11-09T00:14:05.081Z,5.40
2022-11-09T00:19:06.860Z,4.50
2022-11-09T00:24:09.321Z,4.67
2022-11-09T00:29:11.085Z,5.07
2022-11-09T00:34:12.886Z,4.05
2022-11-09T00:39:17.322Z,4.82
2022-11-09T00:44:19.118Z,4.45
2022-11-09T00:49:20.825Z,4.40
2022-11-09T00:54:22.454Z,4.43
2022-11-09T00:59:24.381Z,4.45
2022-11-09T01:04:26.101Z,4.57
2022-11-09T01:09:28.022Z,5.43
2022-11-09T01:14:30.048Z,4.37
2022-11-09T01:19:32.010Z,4.43
2022-11-09T01:24:33.833Z,4.55
2022-11-09T01:29:35.659Z,4.60
2022-11-09T01:34:38.191Z,4.82
2022-11-09T01:39:39.841Z,5.47
2022-11-09T01:44:41.615Z,4.80
2022-11-09T01:49:52.749Z,4.60
2022-11-09T01:55:03.104Z,5.00
2022-11-09T02:00:11.859Z,3.80
2022-11-09T02:05:22.064Z,4.38
2022-11-09T02:10:33.672Z,3.75
2022-11-09T02:15:39.163Z,4.55
2022-11-09T02:20:49.284Z,4.18
2022-11-09T02:26:01.529Z,4.10
2022-11-09T02:31:06.737Z,3.53
2022-11-09T02:36:08.600Z,3.63
2022-11-09T02:41:12.991Z,3.97
2022-11-09T02:46:24.124Z,4.30
2022-11-09T02:51:25.882Z,4.70
2022-11-09T02:56:29.198Z,4.40
2022-11-09T03:01:31.523Z,3.90
2022-11-09T03:06:36.803Z,3.93
2022-11-09T03:11:44.836Z,4.25
2022-11-09T03:16:50.676Z,4.13
2022-11-09T03:21:53.422Z,4.40
2022-11-09T03:26:58.484Z,4.90
2022-11-09T03:32:00.602Z,4.37
2022-11-09T03:37:02.545Z,4.30
2022-11-09T03:42:04.890Z,4.38
2022-11-09T03:47:06.874Z,4.53
2022-11-09T03:52:08.640Z,5.07
2022-11-09T03:57:10.326Z,4.80
2022-11-09T04:02:12.061Z,4.95
2022-11-09T04:07:13.873Z,4.68
2022-11-09T04:12:15.640Z,4.07
2022-11-09T04:17:17.332Z,4.28
2022-11-09T04:22:19.138Z,3.88
2022-11-09T04:27:20.856Z,4.60
2022-11-09T04:32:22.619Z,4.60
2022-11-09T04:37:24.441Z,4.30
2022-11-09T04:42:26.124Z,4.57
2022-11-09T04:47:27.970Z,4.65
2022-11-09T04:52:29.693Z,5.30
2022-11-09T04:57:31.458Z,5.10
2022-11-09T05:02:33.179Z,4.80
2022-11-09T05:07:34.905Z,4.68
2022-11-09T05:12:36.532Z,5.32
2022-11-09T05:17:38.181Z,5.53
2022-11-09T05:22:59.544Z,5.18
2022-11-09T05:28:01.534Z,5.75
2022-11-09T05:33:03.449Z,6.00
2022-11-09T05:38:05.177Z,6.00
2022-11-09T05:43:06.940Z,5.60
2022-11-09T05:48:09.160Z,5.25
2022-11-09T05:53:12.188Z,4.85
2022-11-09T05:58:14.081Z,4.65
2022-11-09T06:03:15.756Z,4.93
2022-11-09T06:08:17.435Z,5.07
2022-11-09T06:13:19.503Z,4.80
2022-11-09T06:18:25.492Z,3.85
2022-11-09T06:23:27.722Z,4.15
2022-11-09T06:28:29.996Z,3.80
2022-11-09T06:33:33.764Z,4.27
2022-11-09T06:38:35.654Z,4.88
2022-11-09T06:43:37.454Z,6.30
2022-11-09T06:48:39.391Z,7.20
2022-11-09T06:53:41.437Z,5.03
2022-11-09T06:58:43.571Z,4.70
2022-11-09T07:03:45.303Z,4.80
2022-11-09T07:08:47.079Z,4.70
2022-11-09T07:13:54.787Z,6.03
2022-11-09T07:18:58.920Z,5.75
2022-11-09T07:24:00.688Z,4.93
2022-11-09T07:29:02.377Z,3.75
2022-11-09T07:34:04.887Z,3.92
2022-11-09T07:39:06.595Z,4.00
2022-11-09T07:44:08.926Z,4.25
2022-11-09T07:49:10.701Z,4.25
2022-11-09T07:54:12.709Z,3.97
2022-11-09T07:59:14.382Z,4.17
2022-11-09T08:04:16.141Z,4.45
2022-11-09T08:09:18.484Z,4.90
2022-11-09T08:14:20.373Z,4.43
2022-11-09T08:19:22.131Z,4.47
2022-11-09T08:24:24.370Z,4.25
2022-11-09T08:29:26.096Z,4.65
2022-11-09T08:34:27.859Z,4.28
2022-11-09T08:39:29.543Z,3.90
2022-11-09T08:44:31.276Z,4.20
2022-11-09T08:49:32.962Z,4.30
2022-11-09T08:54:36.331Z,4.20
2022-11-09T08:59:38.306Z,4.32
2022-11-09T09:04:40.501Z,4.10
2022-11-09T09:09:42.209Z,4.27
2022-11-09T09:14:43.897Z,4.60
2022-11-09T09:19:49.805Z,4.43
2022-11-09T09:24:51.904Z,4.00
2022-11-09T09:29:53.741Z,4.78
2022-11-09T09:34:55.481Z,4.22
2022-11-09T09:39:57.175Z,3.90
2022-11-09T09:45:04.687Z,9.70
2022-11-09T09:50:14.275Z,4.45
2022-11-09T09:55:24.450Z,4.47
2022-11-09T10:00:27.903Z,4.85
2022-11-09T10:05:44.382Z,3.22
2022-11-09T10:10:56.185Z,4.10
2022-11-09T10:16:29.619Z,3.75
2022-11-09T10:21:43.485Z,3.72
2022-11-09T10:26:55.097Z,3.25
2022-11-09T10:32:14.548Z,2.92
2022-11-09T10:37:22.889Z,3.35
2022-11-09T10:42:24.569Z,3.60
2022-11-09T10:47:47.920Z,3.08
2022-11-09T10:53:10.754Z,2.50
2022-11-09T10:58:47.242Z,2.85
2022-11-09T11:04:22.948Z,2.65
2022-11-09T11:09:43.612Z,2.20
2022-11-09T11:15:14.435Z,2.30
2022-11-09T11:20:37.541Z,2.22
2022-11-09T11:26:23.646Z,1.95
2022-11-09T11:31:44.314Z,2.22
2022-11-09T11:37:35.415Z,2.10
2022-11-09T11:43:17.238Z,2.05
2022-11-09T11:48:41.512Z,2.33
2022-11-09T11:59:33.170Z,2.25
2022-11-09T12:05:12.428Z,2.60
2022-11-09T12:11:01.793Z,2.47
2022-11-09T12:16:28.422Z,1.98
2022-11-09T12:22:18.380Z,2.60
2022-11-09T12:28:21.769Z,2.67
2022-11-09T12:33:49.426Z,2.60
2022-11-09T12:39:25.974Z,1.80
2022-11-09T12:45:01.789Z,2.55
2022-11-09T12:50:25.524Z,2.20
2022-11-09T12:55:55.837Z,2.33
2022-11-09T13:01:34.578Z,2.70
2022-11-09T13:07:04.144Z,2.40
2022-11-09T13:12:39.216Z,2.53
2022-11-09T13:18:23.871Z,1.90
2022-11-09T13:24:03.332Z,2.42
2022-11-09T13:29:30.804Z,2.35
2022-11-09T13:34:56.273Z,2.35
2022-11-09T13:40:31.671Z,2.33
2022-11-09T13:45:55.929Z,3.17
2022-11-09T13:51:35.540Z,2.63
2022-11-09T13:56:56.852Z,2.42
2022-11-09T14:02:22.806Z,2.40
2022-11-09T14:07:43.383Z,2.42
2022-11-09T14:13:34.494Z,2.40
2022-11-09T14:19:17.970Z,2.10
2022-11-09T14:24:38.564Z,2.38
2022-11-09T14:30:02.356Z,2.70
2022-11-09T14:35:22.957Z,2.70
2022-11-09T14:40:45.771Z,3.03
2022-11-09T14:46:07.559Z,5.18
2022-11-09T14:51:33.291Z,2.72
2022-11-09T14:56:55.190Z,2.80
2022-11-09T15:02:18.405Z,2.77
2022-11-09T15:13:02.300Z,2.80
2022-11-09T15:18:33.476Z,2.85
2022-11-09T15:24:17.589Z,3.10
2022-11-09T15:29:42.995Z,2.90
2022-11-09T15:35:13.578Z,3.33
2022-11-09T15:40:33.597Z,3.60
2022-11-09T15:45:54.858Z,3.38
2022-11-09T15:51:16.014Z,4.40
2022-11-09T15:56:36.495Z,4.45
2022-11-09T16:01:56.943Z,2.75
2022-11-09T16:07:17.468Z,2.53
2022-11-09T16:12:39.476Z,3.20
2022-11-09T16:18:04.114Z,3.60
2022-11-09T16:23:25.348Z,3.28
2022-11-09T16:28:46.319Z,3.30
2022-11-09T16:34:07.684Z,3.47
2022-11-09T16:39:28.071Z,3.25
2022-11-09T16:44:49.449Z,3.28
2022-11-09T16:50:09.865Z,2.85
2022-11-09T16:55:30.833Z,3.10
2022-11-09T17:06:33.875Z,3.78
2022-11-09T17:11:54.220Z,3.60
2022-11-09T17:17:21.273Z,3.65
2022-11-09T17:22:46.109Z,6.05
2022-11-09T17:28:07.625Z,3.53
2022-11-09T17:33:28.469Z,3.22
2022-11-09T17:38:48.902Z,3.78
2022-11-09T17:44:09.625Z,6.18
2022-11-09T17:49:29.875Z,5.28
2022-11-09T17:54:50.475Z,3.20
2022-11-09T18:00:11.481Z,3.45
2022-11-09T18:05:31.867Z,3.30
2022-11-09T18:10:51.900Z,3.45
2022-11-09T18:16:17.728Z,3.10
2022-11-09T18:21:39.122Z,3.75
2022-11-09T18:26:59.929Z,3.65
2022-11-09T18:32:20.045Z,4.28
2022-11-09T18:37:40.777Z,3.13
2022-11-09T18:43:01.264Z,3.08
2022-11-09T18:48:21.994Z,3.10
2022-11-09T18:53:44.431Z,3.47
2022-11-09T18:59:05.104Z,2.85
2022-11-09T19:04:25.932Z,3.08
2022-11-09T19:09:46.139Z,3.05
2022-11-09T19:15:07.456Z,3.10
2022-11-09T19:20:28.987Z,3.67
2022-11-09T19:25:50.271Z,3.40
2022-11-09T19:31:18.795Z,2.88
2022-11-09T19:36:39.604Z,3.47
2022-11-09T19:41:59.496Z,3.67
2022-11-09T19:47:20.093Z,3.92
2022-11-09T19:52:40.808Z,3.85
2022-11-09T19:58:01.124Z,3.90
2022-11-09T20:03:21.530Z,4.65
2022-11-09T20:08:41.878Z,5.22
2022-11-09T20:14:06.029Z,5.53
2022-11-09T20:19:26.160Z,6.07
2022-11-09T20:24:46.610Z,6.35
2022-11-09T20:30:07.641Z,7.15
2022-11-09T20:35:28.192Z,6.45
2022-11-09T20:41:00.145Z,7.30
2022-11-09T20:46:22.913Z,7.07
2022-11-09T20:51:43.301Z,7.32
2022-11-09T20:57:03.772Z,7.45
2022-11-09T21:02:24.378Z,8.00
2022-11-09T21:07:44.640Z,8.73
2022-11-09T21:13:05.131Z,9.00
2022-11-09T21:18:25.544Z,10.25
2022-11-09T21:24:04.692Z,9.52
2022-11-09T21:29:43.535Z,10.85
2022-11-09T21:35:04.808Z,11.88
2022-11-09T21:40:25.099Z,12.38
2022-11-09T21:45:49.287Z,12.77
2022-11-09T21:51:09.321Z,12.32
2022-11-09T21:56:30.127Z,13.40
2022-11-09T22:01:52.052Z,13.77
2022-11-09T22:07:12.698Z,12.95
2022-11-09T22:12:51.653Z,14.05
2022-11-09T22:18:31.933Z,15.38
2022-11-09T22:23:52.285Z,15.82
2022-11-09T22:29:12.400Z,17.40
2022-11-09T22:34:32.586Z,15.73
2022-11-09T22:39:52.728Z,17.08
2022-11-09T22:45:13.152Z,16.88
2022-11-09T22:50:33.335Z,17.38
2022-11-09T22:55:58.730Z,19.02
2022-11-09T23:01:20.451Z,19.08
2022-11-09T23:06:40.898Z,17.65
2022-11-09T23:12:01.379Z,17.73
2022-11-09T23:17:40.295Z,19.05
2022-11-09T23:23:00.621Z,20.50
2022-11-09T23:28:21.395Z,19.50
2022-11-09T23:33:42.543Z,19.20
2022-11-09T23:39:03.048Z,21.58
2022-11-09T23:44:23.309Z,21.50
2022-11-09T23:49:43.909Z,21.65
2022-11-09T23:55:04.592Z,21.58
